sensor_id;sensor_type;location;lat;lon;timestamp;P1;durP1;ratioP1;P2;durP2;ratioP2
32639;SDS011;19049;52.524;11.468;2022-12-07T00:01:21;14.67;;;8.97;;
32639;SDS011;19049;52.524;11.468;2022-12-07T00:03:48;13.70;;;7.83;;
32639;SDS011;19049;52.524;11.468;2022-12-07T00:06:20;13.50;;;8.30;;
32639;SDS011;19049;52.524;11.468;2022-12-07T00:08:46;13.67;;;8.67;;
32639;SDS011;19049;52.524;11.468;2022-12-07T00:11:13;14.77;;;9.20;;
32639;SDS011;19049;52.524;11.468;2022-12-07T00:13:42;12.53;;;7.80;;
32639;SDS011;19049;52.524;11.468;2022-12-07T00:16:09;13.93;;;8.60;;
32639;SDS011;19049;52.524;11.468;2022-12-07T00:18:37;15.10;;;9.30;;
32639;SDS011;19049;52.524;11.468;2022-12-07T00:21:11;15.63;;;9.33;;
32639;SDS011;19049;52.524;11.468;2022-12-07T00:23:39;14.77;;;8.40;;
32639;SDS011;19049;52.524;11.468;2022-12-07T00:26:06;16.20;;;9.37;;
32639;SDS011;19049;52.524;11.468;2022-12-07T00:28:36;17.70;;;10.57;;
32639;SDS011;19049;52.524;11.468;2022-12-07T00:31:07;15.53;;;9.50;;
32639;SDS011;19049;52.524;11.468;2022-12-07T00:33:34;15.80;;;9.23;;
32639;SDS011;19049;52.524;11.468;2022-12-07T00:36:03;20.90;;;10.10;;
32639;SDS011;19049;52.524;11.468;2022-12-07T00:38:32;16.73;;;10.13;;
32639;SDS011;19049;52.524;11.468;2022-12-07T00:41:00;19.47;;;10.60;;
32639;SDS011;19049;52.524;11.468;2022-12-07T00:43:28;15.23;;;9.50;;
32639;SDS011;19049;52.524;11.468;2022-12-07T00:45:54;16.93;;;9.47;;
32639;SDS011;19049;52.524;11.468;2022-12-07T00:48:25;14.43;;;8.67;;
32639;SDS011;19049;52.524;11.468;2022-12-07T00:50:51;15.30;;;9.03;;
32639;SDS011;19049;52.524;11.468;2022-12-07T00:53:17;19.73;;;10.63;;
32639;SDS011;19049;52.524;11.468;2022-12-07T00:55:43;17.27;;;10.57;;
32639;SDS011;19049;52.524;11.468;2022-12-07T00:58:12;17.10;;;11.03;;
32639;SDS011;19049;52.524;11.468;2022-12-07T01:00:39;17.20;;;10.93;;
32639;SDS011;19049;52.524;11.468;2022-12-07T01:03:06;19.83;;;12.00;;
32639;SDS011;19049;52.524;11.468;2022-12-07T01:05:33;22.20;;;12.97;;
32639;SDS011;19049;52.524;11.468;2022-12-07T01:07:59;19.80;;;12.17;;
32639;SDS011;19049;52.524;11.468;2022-12-07T01:10:25;17.90;;;11.43;;
32639;SDS011;19049;52.524;11.468;2022-12-07T01:12:54;18.53;;;11.77;;
32639;SDS011;19049;52.524;11.468;2022-12-07T01:15:21;19.90;;;12.70;;
32639;SDS011;19049;52.524;11.468;2022-12-07T01:17:47;19.23;;;12.40;;
32639;SDS011;19049;52.524;11.468;2022-12-07T01:20:13;18.00;;;10.83;;
32639;SDS011;19049;52.524;11.468;2022-12-07T01:22:40;22.23;;;13.43;;
32639;SDS011;19049;52.524;11.468;2022-12-07T01:25:07;18.23;;;11.87;;
32639;SDS011;19049;52.524;11.468;2022-12-07T01:27:34;22.53;;;13.57;;
32639;SDS011;19049;52.524;11.468;2022-12-07T01:30:01;17.77;;;10.80;;
32639;SDS011;19049;52.524;11.468;2022-12-07T01:32:29;19.10;;;11.43;;
32639;SDS011;19049;52.524;11.468;2022-12-07T01:34:55;18.37;;;11.60;;
32639;SDS011;19049;52.524;11.468;2022-12-07T01:37:21;16.60;;;10.53;;
32639;SDS011;19049;52.524;11.468;2022-12-07T01:39:50;17.80;;;11.47;;
32639;SDS011;19049;52.524;11.468;2022-12-07T01:42:16;19.47;;;12.07;;
32639;SDS011;19049;52.524;11.468;2022-12-07T01:47:45;17.90;;;11.83;;
32639;SDS011;19049;52.524;11.468;2022-12-07T01:50:16;18.70;;;11.80;;
32639;SDS011;19049;52.524;11.468;2022-12-07T01:52:44;16.63;;;11.13;;
32639;SDS011;19049;52.524;11.468;2022-12-07T01:55:15;14.53;;;10.10;;
32639;SDS011;19049;52.524;11.468;2022-12-07T01:57:42;20.97;;;13.83;;
32639;SDS011;19049;52.524;11.468;2022-12-07T02:00:11;18.67;;;12.77;;
32639;SDS011;19049;52.524;11.468;2022-12-07T02:02:38;20.27;;;12.20;;
32639;SDS011;19049;52.524;11.468;2022-12-07T02:05:10;22.10;;;14.10;;
32639;SDS011;19049;52.524;11.468;2022-12-07T02:07:36;22.27;;;13.73;;
32639;SDS011;19049;52.524;11.468;2022-12-07T02:10:20;21.77;;;13.47;;
32639;SDS011;19049;52.524;11.468;2022-12-07T02:12:49;25.93;;;15.50;;
32639;SDS011;19049;52.524;11.468;2022-12-07T02:15:20;21.63;;;14.40;;
32639;SDS011;19049;52.524;11.468;2022-12-07T02:18:04;24.33;;;15.50;;
32639;SDS011;19049;52.524;11.468;2022-12-07T02:20:42;21.53;;;13.57;;
32639;SDS011;19049;52.524;11.468;2022-12-07T02:31:29;22.43;;;14.27;;
32639;SDS011;19049;52.524;11.468;2022-12-07T02:34:05;24.57;;;15.50;;
32639;SDS011;19049;52.524;11.468;2022-12-07T02:36:40;21.37;;;14.63;;
32639;SDS011;19049;52.524;11.468;2022-12-07T02:39:18;21.33;;;12.70;;
32639;SDS011;19049;52.524;11.468;2022-12-07T02:41:51;23.53;;;14.93;;
32639;SDS011;19049;52.524;11.468;2022-12-07T02:44:22;18.63;;;12.27;;
32639;SDS011;19049;52.524;11.468;2022-12-07T02:46:55;24.07;;;14.47;;
32639;SDS011;19049;52.524;11.468;2022-12-07T02:49:28;19.20;;;12.17;;
32639;SDS011;19049;52.524;11.468;2022-12-07T02:51:54;23.40;;;15.00;;
32639;SDS011;19049;52.524;11.468;2022-12-07T02:54:20;23.13;;;14.70;;
32639;SDS011;19049;52.524;11.468;2022-12-07T02:56:48;26.77;;;16.23;;
32639;SDS011;19049;52.524;11.468;2022-12-07T03:02:06;26.30;;;16.13;;
32639;SDS011;19049;52.524;11.468;2022-12-07T03:07:11;30.50;;;18.13;;
32639;SDS011;19049;52.524;11.468;2022-12-07T03:09:51;27.47;;;16.40;;
32639;SDS011;19049;52.524;11.468;2022-12-07T03:12:35;29.83;;;17.17;;
32639;SDS011;19049;52.524;11.468;2022-12-07T03:15:12;31.37;;;17.83;;
32639;SDS011;19049;52.524;11.468;2022-12-07T03:17:46;35.00;;;19.67;;
32639;SDS011;19049;52.524;11.468;2022-12-07T03:20:16;27.90;;;17.33;;
32639;SDS011;19049;52.524;11.468;2022-12-07T03:22:46;33.77;;;20.13;;
32639;SDS011;19049;52.524;11.468;2022-12-07T03:25:13;31.40;;;17.60;;
32639;SDS011;19049;52.524;11.468;2022-12-07T03:27:54;31.43;;;18.17;;
32639;SDS011;19049;52.524;11.468;2022-12-07T03:30:29;28.97;;;16.80;;
32639;SDS011;19049;52.524;11.468;2022-12-07T03:33:22;34.00;;;18.87;;
32639;SDS011;19049;52.524;11.468;2022-12-07T03:35:58;30.77;;;18.00;;
32639;SDS011;19049;52.524;11.468;2022-12-07T03:38:40;31.53;;;17.20;;
32639;SDS011;19049;52.524;11.468;2022-12-07T03:41:34;27.53;;;16.33;;
32639;SDS011;19049;52.524;11.468;2022-12-07T03:43:59;26.53;;;16.50;;
32639;SDS011;19049;52.524;11.468;2022-12-07T03:57:46;26.50;;;16.20;;
32639;SDS011;19049;52.524;11.468;2022-12-07T04:00:15;24.80;;;14.80;;
32639;SDS011;19049;52.524;11.468;2022-12-07T04:02:42;25.17;;;15.83;;
32639;SDS011;19049;52.524;11.468;2022-12-07T04:05:08;28.87;;;16.23;;
32639;SDS011;19049;52.524;11.468;2022-12-07T04:07:35;28.97;;;16.37;;
32639;SDS011;19049;52.524;11.468;2022-12-07T04:10:01;30.50;;;17.53;;
32639;SDS011;19049;52.524;11.468;2022-12-07T04:12:28;25.60;;;14.97;;
32639;SDS011;19049;52.524;11.468;2022-12-07T04:14:53;25.70;;;16.17;;
32639;SDS011;19049;52.524;11.468;2022-12-07T04:17:19;27.57;;;16.47;;
32639;SDS011;19049;52.524;11.468;2022-12-07T04:19:45;26.03;;;14.93;;
32639;SDS011;19049;52.524;11.468;2022-12-07T04:22:10;28.40;;;16.87;;
32639;SDS011;19049;52.524;11.468;2022-12-07T04:24:36;28.67;;;16.97;;
32639;SDS011;19049;52.524;11.468;2022-12-07T04:27:02;27.63;;;17.30;;
32639;SDS011;19049;52.524;11.468;2022-12-07T04:29:28;29.77;;;18.03;;
32639;SDS011;19049;52.524;11.468;2022-12-07T04:31:56;29.90;;;17.70;;
32639;SDS011;19049;52.524;11.468;2022-12-07T04:34:22;28.80;;;16.77;;
32639;SDS011;19049;52.524;11.468;2022-12-07T04:36:47;34.77;;;19.70;;
32639;SDS011;19049;52.524;11.468;2022-12-07T04:39:34;26.70;;;16.97;;
32639;SDS011;19049;52.524;11.468;2022-12-07T04:41:59;25.37;;;16.33;;
32639;SDS011;19049;52.524;11.468;2022-12-07T04:44:27;25.30;;;16.37;;
32639;SDS011;19049;52.524;11.468;2022-12-07T04:46:53;25.53;;;14.87;;
32639;SDS011;19049;52.524;11.468;2022-12-07T04:49:19;26.43;;;15.40;;
32639;SDS011;19049;52.524;11.468;2022-12-07T04:51:48;28.97;;;16.77;;
32639;SDS011;19049;52.524;11.468;2022-12-07T04:54:14;23.93;;;14.70;;
32639;SDS011;19049;52.524;11.468;2022-12-07T04:56:41;22.83;;;14.27;;
32639;SDS011;19049;52.524;11.468;2022-12-07T04:59:07;23.80;;;15.17;;
32639;SDS011;19049;52.524;11.468;2022-12-07T05:01:34;24.30;;;14.13;;
32639;SDS011;19049;52.524;11.468;2022-12-07T05:03:59;18.87;;;13.20;;
32639;SDS011;19049;52.524;11.468;2022-12-07T05:06:25;20.30;;;12.73;;
32639;SDS011;19049;52.524;11.468;2022-12-07T05:08:51;21.87;;;13.03;;
32639;SDS011;19049;52.524;11.468;2022-12-07T05:11:17;19.50;;;13.43;;
32639;SDS011;19049;52.524;11.468;2022-12-07T05:14:02;21.33;;;13.17;;
32639;SDS011;19049;52.524;11.468;2022-12-07T05:16:29;21.17;;;11.70;;
32639;SDS011;19049;52.524;11.468;2022-12-07T05:18:55;20.50;;;12.00;;
32639;SDS011;19049;52.524;11.468;2022-12-07T05:21:21;19.30;;;12.00;;
32639;SDS011;19049;52.524;11.468;2022-12-07T05:23:49;19.07;;;11.07;;
32639;SDS011;19049;52.524;11.468;2022-12-07T05:26:15;16.03;;;10.57;;
32639;SDS011;19049;52.524;11.468;2022-12-07T05:28:40;14.50;;;9.13;;
32639;SDS011;19049;52.524;11.468;2022-12-07T05:31:06;16.93;;;9.30;;
32639;SDS011;19049;52.524;11.468;2022-12-07T05:33:32;15.00;;;8.80;;
32639;SDS011;19049;52.524;11.468;2022-12-07T05:35:58;14.77;;;8.77;;
32639;SDS011;19049;52.524;11.468;2022-12-07T05:38:23;13.50;;;8.97;;
32639;SDS011;19049;52.524;11.468;2022-12-07T05:40:50;15.53;;;9.03;;
32639;SDS011;19049;52.524;11.468;2022-12-07T05:43:15;14.07;;;8.60;;
32639;SDS011;19049;52.524;11.468;2022-12-07T05:45:41;10.80;;;7.43;;
32639;SDS011;19049;52.524;11.468;2022-12-07T05:48:07;11.93;;;7.50;;
32639;SDS011;19049;52.524;11.468;2022-12-07T05:50:32;11.13;;;6.97;;
32639;SDS011;19049;52.524;11.468;2022-12-07T05:53:01;11.90;;;7.00;;
32639;SDS011;19049;52.524;11.468;2022-12-07T05:55:28;13.23;;;8.00;;
32639;SDS011;19049;52.524;11.468;2022-12-07T05:57:54;13.70;;;8.07;;
32639;SDS011;19049;52.524;11.468;2022-12-07T06:00:43;13.53;;;8.77;;
32639;SDS011;19049;52.524;11.468;2022-12-07T06:03:08;11.20;;;7.43;;
32639;SDS011;19049;52.524;11.468;2022-12-07T06:05:36;9.93;;;6.77;;
32639;SDS011;19049;52.524;11.468;2022-12-07T06:08:08;11.50;;;7.57;;
32639;SDS011;19049;52.524;11.468;2022-12-07T06:10:36;13.20;;;7.13;;
32639;SDS011;19049;52.524;11.468;2022-12-07T06:13:02;11.73;;;8.17;;
32639;SDS011;19049;52.524;11.468;2022-12-07T06:15:27;11.03;;;6.87;;
32639;SDS011;19049;52.524;11.468;2022-12-07T06:17:53;9.70;;;6.10;;
32639;SDS011;19049;52.524;11.468;2022-12-07T06:20:19;11.73;;;6.00;;
32639;SDS011;19049;52.524;11.468;2022-12-07T06:22:44;10.97;;;6.07;;
32639;SDS011;19049;52.524;11.468;2022-12-07T06:25:10;11.03;;;7.10;;
32639;SDS011;19049;52.524;11.468;2022-12-07T06:27:41;10.13;;;6.60;;
32639;SDS011;19049;52.524;11.468;2022-12-07T06:30:07;13.40;;;6.80;;
32639;SDS011;19049;52.524;11.468;2022-12-07T06:32:33;11.73;;;7.17;;
32639;SDS011;19049;52.524;11.468;2022-12-07T06:35:01;11.10;;;7.70;;
32639;SDS011;19049;52.524;11.468;2022-12-07T06:37:26;14.03;;;7.73;;
32639;SDS011;19049;52.524;11.468;2022-12-07T06:39:52;10.70;;;7.07;;
32639;SDS011;19049;52.524;11.468;2022-12-07T06:42:18;9.33;;;6.50;;
32639;SDS011;19049;52.524;11.468;2022-12-07T06:44:43;13.67;;;7.50;;
32639;SDS011;19049;52.524;11.468;2022-12-07T06:47:09;11.70;;;6.57;;
32639;SDS011;19049;52.524;11.468;2022-12-07T06:49:36;11.13;;;6.87;;
32639;SDS011;19049;52.524;11.468;2022-12-07T06:52:02;9.97;;;5.83;;
32639;SDS011;19049;52.524;11.468;2022-12-07T06:54:29;10.57;;;6.27;;
32639;SDS011;19049;52.524;11.468;2022-12-07T06:56:55;11.57;;;6.10;;
32639;SDS011;19049;52.524;11.468;2022-12-07T06:59:21;9.80;;;6.20;;
32639;SDS011;19049;52.524;11.468;2022-12-07T07:01:47;9.73;;;5.43;;
32639;SDS011;19049;52.524;11.468;2022-12-07T07:04:12;10.97;;;6.57;;
32639;SDS011;19049;52.524;11.468;2022-12-07T07:06:38;15.90;;;7.20;;
32639;SDS011;19049;52.524;11.468;2022-12-07T07:09:03;9.47;;;5.77;;
32639;SDS011;19049;52.524;11.468;2022-12-07T07:11:29;10.03;;;6.43;;
32639;SDS011;19049;52.524;11.468;2022-12-07T07:13:55;10.83;;;6.00;;
32639;SDS011;19049;52.524;11.468;2022-12-07T07:16:23;12.10;;;6.27;;
32639;SDS011;19049;52.524;11.468;2022-12-07T07:18:49;12.23;;;7.20;;
32639;SDS011;19049;52.524;11.468;2022-12-07T07:21:15;11.27;;;6.13;;
32639;SDS011;19049;52.524;11.468;2022-12-07T07:23:40;9.77;;;5.90;;
32639;SDS011;19049;52.524;11.468;2022-12-07T07:26:06;10.10;;;5.43;;
32639;SDS011;19049;52.524;11.468;2022-12-07T07:28:32;16.13;;;7.00;;
32639;SDS011;19049;52.524;11.468;2022-12-07T07:30:57;12.60;;;7.37;;
32639;SDS011;19049;52.524;11.468;2022-12-07T07:33:23;11.40;;;6.50;;
32639;SDS011;19049;52.524;11.468;2022-12-07T07:35:51;11.73;;;7.20;;
32639;SDS011;19049;52.524;11.468;2022-12-07T07:38:17;12.87;;;7.83;;
32639;SDS011;19049;52.524;11.468;2022-12-07T07:40:46;16.20;;;11.50;;
32639;SDS011;19049;52.524;11.468;2022-12-07T07:43:11;15.67;;;10.10;;
32639;SDS011;19049;52.524;11.468;2022-12-07T07:45:37;33.13;;;20.30;;
32639;SDS011;19049;52.524;11.468;2022-12-07T07:48:03;14.97;;;9.43;;
32639;SDS011;19049;52.524;11.468;2022-12-07T07:50:28;14.80;;;9.60;;
32639;SDS011;19049;52.524;11.468;2022-12-07T07:52:54;12.73;;;8.40;;
32639;SDS011;19049;52.524;11.468;2022-12-07T07:55:22;14.43;;;9.30;;
32639;SDS011;19049;52.524;11.468;2022-12-07T07:57:47;17.70;;;9.30;;
32639;SDS011;19049;52.524;11.468;2022-12-07T08:00:13;13.30;;;8.43;;
32639;SDS011;19049;52.524;11.468;2022-12-07T08:02:40;14.73;;;8.60;;
32639;SDS011;19049;52.524;11.468;2022-12-07T08:05:08;16.23;;;9.40;;
32639;SDS011;19049;52.524;11.468;2022-12-07T08:07:35;13.70;;;8.60;;
32639;SDS011;19049;52.524;11.468;2022-12-07T08:10:00;11.03;;;7.40;;
32639;SDS011;19049;52.524;11.468;2022-12-07T08:12:26;12.70;;;6.83;;
32639;SDS011;19049;52.524;11.468;2022-12-07T08:14:52;6.93;;;5.53;;
32639;SDS011;19049;52.524;11.468;2022-12-07T08:17:17;8.60;;;5.80;;
32639;SDS011;19049;52.524;11.468;2022-12-07T08:19:43;9.37;;;5.10;;
32639;SDS011;19049;52.524;11.468;2022-12-07T08:22:09;7.73;;;5.30;;
32639;SDS011;19049;52.524;11.468;2022-12-07T08:24:35;7.63;;;5.53;;
32639;SDS011;19049;52.524;11.468;2022-12-07T08:27:01;12.33;;;7.70;;
32639;SDS011;19049;52.524;11.468;2022-12-07T08:29:27;11.83;;;6.63;;
32639;SDS011;19049;52.524;11.468;2022-12-07T08:31:55;9.83;;;6.90;;
32639;SDS011;19049;52.524;11.468;2022-12-07T08:34:21;10.23;;;7.07;;
32639;SDS011;19049;52.524;11.468;2022-12-07T08:36:49;9.17;;;6.23;;
32639;SDS011;19049;52.524;11.468;2022-12-07T08:39:17;9.90;;;6.10;;
32639;SDS011;19049;52.524;11.468;2022-12-07T08:41:42;12.17;;;6.17;;
32639;SDS011;19049;52.524;11.468;2022-12-07T08:44:08;10.00;;;6.37;;
32639;SDS011;19049;52.524;11.468;2022-12-07T08:46:35;9.37;;;6.60;;
32639;SDS011;19049;52.524;11.468;2022-12-07T08:49:14;11.83;;;7.83;;
32639;SDS011;19049;52.524;11.468;2022-12-07T08:51:44;12.43;;;6.87;;
32639;SDS011;19049;52.524;11.468;2022-12-07T08:54:14;9.73;;;6.30;;
32639;SDS011;19049;52.524;11.468;2022-12-07T08:56:42;9.57;;;5.67;;
32639;SDS011;19049;52.524;11.468;2022-12-07T08:59:09;8.77;;;6.40;;
32639;SDS011;19049;52.524;11.468;2022-12-07T09:01:36;15.83;;;8.63;;
32639;SDS011;19049;52.524;11.468;2022-12-07T09:04:02;28.43;;;13.47;;
32639;SDS011;19049;52.524;11.468;2022-12-07T09:06:28;14.30;;;7.97;;
32639;SDS011;19049;52.524;11.468;2022-12-07T09:08:54;19.67;;;11.63;;
32639;SDS011;19049;52.524;11.468;2022-12-07T09:11:23;14.77;;;8.03;;
32639;SDS011;19049;52.524;11.468;2022-12-07T09:13:49;23.90;;;14.07;;
32639;SDS011;19049;52.524;11.468;2022-12-07T09:16:14;24.57;;;14.30;;
32639;SDS011;19049;52.524;11.468;2022-12-07T09:18:40;24.77;;;12.10;;
32639;SDS011;19049;52.524;11.468;2022-12-07T09:21:06;18.77;;;11.47;;
32639;SDS011;19049;52.524;11.468;2022-12-07T09:23:32;29.33;;;17.10;;
32639;SDS011;19049;52.524;11.468;2022-12-07T09:25:59;21.77;;;12.33;;
32639;SDS011;19049;52.524;11.468;2022-12-07T09:28:25;24.70;;;15.53;;
32639;SDS011;19049;52.524;11.468;2022-12-07T09:30:51;16.17;;;12.07;;
32639;SDS011;19049;52.524;11.468;2022-12-07T09:33:17;13.80;;;10.00;;
32639;SDS011;19049;52.524;11.468;2022-12-07T09:35:46;11.47;;;8.13;;
32639;SDS011;19049;52.524;11.468;2022-12-07T09:38:13;10.47;;;7.50;;
32639;SDS011;19049;52.524;11.468;2022-12-07T09:40:40;9.93;;;7.00;;
32639;SDS011;19049;52.524;11.468;2022-12-07T09:43:15;9.57;;;6.23;;
32639;SDS011;19049;52.524;11.468;2022-12-07T09:45:43;6.67;;;5.10;;
32639;SDS011;19049;52.524;11.468;2022-12-07T09:48:14;8.87;;;5.67;;
32639;SDS011;19049;52.524;11.468;2022-12-07T09:50:46;6.40;;;5.20;;
32639;SDS011;19049;52.524;11.468;2022-12-07T09:53:19;7.47;;;5.30;;
32639;SDS011;19049;52.524;11.468;2022-12-07T09:55:50;8.50;;;4.37;;
32639;SDS011;19049;52.524;11.468;2022-12-07T09:58:26;5.03;;;3.90;;
32639;SDS011;19049;52.524;11.468;2022-12-07T10:00:55;6.63;;;4.20;;
32639;SDS011;19049;52.524;11.468;2022-12-07T10:03:42;4.33;;;3.53;;
32639;SDS011;19049;52.524;11.468;2022-12-07T10:06:13;7.33;;;3.70;;
32639;SDS011;19049;52.524;11.468;2022-12-07T10:08:41;5.23;;;3.13;;
32639;SDS011;19049;52.524;11.468;2022-12-07T10:11:08;6.83;;;4.33;;
32639;SDS011;19049;52.524;11.468;2022-12-07T10:13:48;5.37;;;3.77;;
32639;SDS011;19049;52.524;11.468;2022-12-07T10:18:49;15.73;;;7.57;;
32639;SDS011;19049;52.524;11.468;2022-12-07T10:23:58;7.40;;;4.50;;
32639;SDS011;19049;52.524;11.468;2022-12-07T10:31:40;15.40;;;9.63;;
32639;SDS011;19049;52.524;11.468;2022-12-07T10:34:14;11.97;;;7.13;;
32639;SDS011;19049;52.524;11.468;2022-12-07T10:36:50;20.53;;;10.10;;
32639;SDS011;19049;52.524;11.468;2022-12-07T10:39:20;16.07;;;8.73;;
32639;SDS011;19049;52.524;11.468;2022-12-07T10:41:53;32.87;;;15.97;;
32639;SDS011;19049;52.524;11.468;2022-12-07T10:44:21;22.77;;;12.50;;
32639;SDS011;19049;52.524;11.468;2022-12-07T10:46:55;17.47;;;8.77;;
32639;SDS011;19049;52.524;11.468;2022-12-07T10:52:22;10.93;;;6.17;;
32639;SDS011;19049;52.524;11.468;2022-12-07T10:57:46;8.03;;;4.53;;
32639;SDS011;19049;52.524;11.468;2022-12-07T11:03:50;7.87;;;3.80;;
32639;SDS011;19049;52.524;11.468;2022-12-07T11:06:35;5.77;;;3.50;;
32639;SDS011;19049;52.524;11.468;2022-12-07T11:20:02;6.90;;;2.90;;
32639;SDS011;19049;52.524;11.468;2022-12-07T11:26:01;4.33;;;2.57;;
32639;SDS011;19049;52.524;11.468;2022-12-07T11:34:39;5.27;;;2.13;;
32639;SDS011;19049;52.524;11.468;2022-12-07T11:37:13;5.23;;;2.30;;
32639;SDS011;19049;52.524;11.468;2022-12-07T11:39:50;5.97;;;2.43;;
32639;SDS011;19049;52.524;11.468;2022-12-07T11:42:22;8.33;;;2.73;;
32639;SDS011;19049;52.524;11.468;2022-12-07T11:44:56;9.53;;;5.70;;
32639;SDS011;19049;52.524;11.468;2022-12-07T11:53:09;5.50;;;2.67;;
32639;SDS011;19049;52.524;11.468;2022-12-07T12:03:42;3.83;;;1.80;;
32639;SDS011;19049;52.524;11.468;2022-12-07T12:06:11;3.90;;;2.60;;
32639;SDS011;19049;52.524;11.468;2022-12-07T12:08:50;8.03;;;2.70;;
32639;SDS011;19049;52.524;11.468;2022-12-07T12:22:53;8.47;;;4.10;;
32639;SDS011;19049;52.524;11.468;2022-12-07T12:25:37;10.23;;;4.77;;
32639;SDS011;19049;52.524;11.468;2022-12-07T12:28:10;8.07;;;4.07;;
32639;SDS011;19049;52.524;11.468;2022-12-07T12:33:46;5.17;;;2.73;;
32639;SDS011;19049;52.524;11.468;2022-12-07T12:46:47;7.33;;;3.30;;
32639;SDS011;19049;52.524;11.468;2022-12-07T12:51:53;6.60;;;3.17;;
32639;SDS011;19049;52.524;11.468;2022-12-07T12:54:37;5.73;;;2.60;;
32639;SDS011;19049;52.524;11.468;2022-12-07T12:59:58;3.80;;;2.10;;
32639;SDS011;19049;52.524;11.468;2022-12-07T13:04:55;3.87;;;1.80;;
32639;SDS011;19049;52.524;11.468;2022-12-07T13:15:47;2.73;;;1.90;;
32639;SDS011;19049;52.524;11.468;2022-12-07T13:20:53;4.73;;;2.10;;
32639;SDS011;19049;52.524;11.468;2022-12-07T13:24:10;9.57;;;3.57;;
32639;SDS011;19049;52.524;11.468;2022-12-07T13:32:17;6.90;;;4.73;;
32639;SDS011;19049;52.524;11.468;2022-12-07T13:34:47;8.07;;;4.60;;
32639;SDS011;19049;52.524;11.468;2022-12-07T13:37:26;24.90;;;10.97;;
32639;SDS011;19049;52.524;11.468;2022-12-07T13:39:57;14.00;;;8.30;;
32639;SDS011;19049;52.524;11.468;2022-12-07T13:42:31;12.13;;;6.47;;
32639;SDS011;19049;52.524;11.468;2022-12-07T13:44:59;12.60;;;6.03;;
32639;SDS011;19049;52.524;11.468;2022-12-07T13:47:49;7.10;;;3.60;;
32639;SDS011;19049;52.524;11.468;2022-12-07T13:50:23;5.20;;;3.27;;
32639;SDS011;19049;52.524;11.468;2022-12-07T13:52:57;4.63;;;3.17;;
32639;SDS011;19049;52.524;11.468;2022-12-07T13:55:24;4.83;;;3.23;;
32639;SDS011;19049;52.524;11.468;2022-12-07T13:57:52;6.50;;;3.50;;
32639;SDS011;19049;52.524;11.468;2022-12-07T14:00:20;8.40;;;4.03;;
32639;SDS011;19049;52.524;11.468;2022-12-07T14:05:32;7.77;;;2.63;;
32639;SDS011;19049;52.524;11.468;2022-12-07T14:08:04;4.83;;;2.83;;
32639;SDS011;19049;52.524;11.468;2022-12-07T14:10:37;2.90;;;2.20;;
32639;SDS011;19049;52.524;11.468;2022-12-07T14:13:26;3.60;;;2.23;;
32639;SDS011;19049;52.524;11.468;2022-12-07T14:16:28;5.33;;;2.20;;
32639;SDS011;19049;52.524;11.468;2022-12-07T14:18:57;4.10;;;2.10;;
32639;SDS011;19049;52.524;11.468;2022-12-07T14:21:25;4.17;;;2.23;;
32639;SDS011;19049;52.524;11.468;2022-12-07T14:24:04;4.67;;;2.50;;
32639;SDS011;19049;52.524;11.468;2022-12-07T14:26:47;4.67;;;2.53;;
32639;SDS011;19049;52.524;11.468;2022-12-07T14:31:52;3.50;;;2.07;;
32639;SDS011;19049;52.524;11.468;2022-12-07T14:34:20;5.17;;;2.50;;
32639;SDS011;19049;52.524;11.468;2022-12-07T14:36:46;3.97;;;2.20;;
32639;SDS011;19049;52.524;11.468;2022-12-07T14:39:12;4.57;;;2.30;;
32639;SDS011;19049;52.524;11.468;2022-12-07T14:41:37;5.83;;;2.53;;
32639;SDS011;19049;52.524;11.468;2022-12-07T14:44:15;5.87;;;1.87;;
32639;SDS011;19049;52.524;11.468;2022-12-07T14:46:41;2.13;;;1.93;;
32639;SDS011;19049;52.524;11.468;2022-12-07T14:49:07;3.60;;;1.47;;
32639;SDS011;19049;52.524;11.468;2022-12-07T14:51:33;2.27;;;2.00;;
32639;SDS011;19049;52.524;11.468;2022-12-07T14:54:03;3.37;;;1.60;;
32639;SDS011;19049;52.524;11.468;2022-12-07T14:56:31;3.57;;;1.90;;
32639;SDS011;19049;52.524;11.468;2022-12-07T14:58:56;2.83;;;1.50;;
32639;SDS011;19049;52.524;11.468;2022-12-07T15:01:22;3.23;;;1.57;;
32639;SDS011;19049;52.524;11.468;2022-12-07T15:03:48;4.77;;;2.30;;
32639;SDS011;19049;52.524;11.468;2022-12-07T15:06:14;3.40;;;2.20;;
32639;SDS011;19049;52.524;11.468;2022-12-07T15:08:41;3.53;;;1.77;;
32639;SDS011;19049;52.524;11.468;2022-12-07T15:11:13;4.60;;;2.00;;
32639;SDS011;19049;52.524;11.468;2022-12-07T15:13:40;2.80;;;1.40;;
32639;SDS011;19049;52.524;11.468;2022-12-07T15:16:24;1.50;;;1.10;;
32639;SDS011;19049;52.524;11.468;2022-12-07T15:18:52;2.33;;;1.60;;
32639;SDS011;19049;52.524;11.468;2022-12-07T15:21:17;4.53;;;1.40;;
32639;SDS011;19049;52.524;11.468;2022-12-07T15:23:43;3.90;;;0.90;;
32639;SDS011;19049;52.524;11.468;2022-12-07T15:26:10;1.27;;;0.80;;
32639;SDS011;19049;52.524;11.468;2022-12-07T15:28:36;2.00;;;1.00;;
32639;SDS011;19049;52.524;11.468;2022-12-07T15:31:02;2.17;;;0.90;;
32639;SDS011;19049;52.524;11.468;2022-12-07T15:33:28;2.40;;;1.00;;
32639;SDS011;19049;52.524;11.468;2022-12-07T15:35:54;2.10;;;1.00;;
32639;SDS011;19049;52.524;11.468;2022-12-07T15:38:20;1.77;;;0.97;;
32639;SDS011;19049;52.524;11.468;2022-12-07T15:40:48;1.33;;;1.20;;
32639;SDS011;19049;52.524;11.468;2022-12-07T15:43:15;3.47;;;1.23;;
32639;SDS011;19049;52.524;11.468;2022-12-07T15:45:59;1.97;;;0.90;;
32639;SDS011;19049;52.524;11.468;2022-12-07T15:48:25;2.40;;;1.30;;
32639;SDS011;19049;52.524;11.468;2022-12-07T15:50:51;3.70;;;1.60;;
32639;SDS011;19049;52.524;11.468;2022-12-07T15:53:16;3.07;;;1.80;;
32639;SDS011;19049;52.524;11.468;2022-12-07T15:55:42;1.97;;;1.30;;
32639;SDS011;19049;52.524;11.468;2022-12-07T15:58:08;3.00;;;1.60;;
32639;SDS011;19049;52.524;11.468;2022-12-07T16:00:33;2.47;;;1.50;;
32639;SDS011;19049;52.524;11.468;2022-12-07T16:02:59;4.23;;;1.57;;
32639;SDS011;19049;52.524;11.468;2022-12-07T16:05:27;2.77;;;1.50;;
32639;SDS011;19049;52.524;11.468;2022-12-07T16:07:53;2.60;;;1.70;;
32639;SDS011;19049;52.524;11.468;2022-12-07T16:10:19;2.13;;;1.37;;
32639;SDS011;19049;52.524;11.468;2022-12-07T16:12:47;4.63;;;1.70;;
32639;SDS011;19049;52.524;11.468;2022-12-07T16:15:18;3.70;;;1.60;;
32639;SDS011;19049;52.524;11.468;2022-12-07T16:17:44;2.60;;;1.60;;
32639;SDS011;19049;52.524;11.468;2022-12-07T16:20:10;2.53;;;1.70;;
32639;SDS011;19049;52.524;11.468;2022-12-07T16:22:36;4.43;;;2.20;;
32639;SDS011;19049;52.524;11.468;2022-12-07T16:25:02;3.10;;;1.70;;
32639;SDS011;19049;52.524;11.468;2022-12-07T16:27:28;2.97;;;1.90;;
32639;SDS011;19049;52.524;11.468;2022-12-07T16:29:54;3.23;;;1.80;;
32639;SDS011;19049;52.524;11.468;2022-12-07T16:32:19;3.80;;;2.20;;
32639;SDS011;19049;52.524;11.468;2022-12-07T16:34:45;4.77;;;2.20;;
32639;SDS011;19049;52.524;11.468;2022-12-07T16:37:10;4.57;;;1.90;;
32639;SDS011;19049;52.524;11.468;2022-12-07T16:39:36;3.70;;;2.03;;
32639;SDS011;19049;52.524;11.468;2022-12-07T16:42:02;2.97;;;1.67;;
32639;SDS011;19049;52.524;11.468;2022-12-07T16:44:28;4.00;;;2.27;;
32639;SDS011;19049;52.524;11.468;2022-12-07T16:46:56;4.00;;;1.90;;
32639;SDS011;19049;52.524;11.468;2022-12-07T16:49:21;2.77;;;1.73;;